sensor_id;sensor_type;location;lat;lon;timestamp;P1;P2;P0
47741;PMS5003;33504;52.066;6.096;2023-11-22T00:01:52;28;27;
47741;PMS5003;33504;52.066;6.096;2023-11-22T00:04:19;31;29;
47741;PMS5003;33504;52.066;6.096;2023-11-22T00:06:47;31;30;
47741;PMS5003;33504;52.066;6.096;2023-11-22T00:09:14;33;31;
47741;PMS5003;33504;52.066;6.096;2023-11-22T00:11:41;27;26;
47741;PMS5003;33504;52.066;6.096;2023-11-22T00:14:08;27;25;
47741;PMS5003;33504;52.066;6.096;2023-11-22T00:16:34;29;28;
47741;PMS5003;33504;52.066;6.096;2023-11-22T00:19:01;33;29;
47741;PMS5003;33504;52.066;6.096;2023-11-22T00:21:29;26;24;
47741;PMS5003;33504;52.066;6.096;2023-11-22T00:23:56;24;23;
47741;PMS5003;33504;52.066;6.096;2023-11-22T00:26:24;37;33;
47741;PMS5003;33504;52.066;6.096;2023-11-22T00:28:51;34;34;
47741;PMS5003;33504;52.066;6.096;2023-11-22T00:31:18;30;28;
47741;PMS5003;33504;52.066;6.096;2023-11-22T00:33:45;26;26;
47741;PMS5003;33504;52.066;6.096;2023-11-22T00:36:11;29;28;
47741;PMS5003;33504;52.066;6.096;2023-11-22T00:38:39;31;29;
47741;PMS5003;33504;52.066;6.096;2023-11-22T00:41:06;27;26;
47741;PMS5003;33504;52.066;6.096;2023-11-22T00:43:33;24;24;
47741;PMS5003;33504;52.066;6.096;2023-11-22T00:46:00;30;28;
47741;PMS5003;33504;52.066;6.096;2023-11-22T00:48:27;33;31;
47741;PMS5003;33504;52.066;6.096;2023-11-22T00:50:54;34;32;
47741;PMS5003;33504;52.066;6.096;2023-11-22T00:53:21;28;27;
47741;PMS5003;33504;52.066;6.096;2023-11-22T00:55:48;29;27;
47741;PMS5003;33504;52.066;6.096;2023-11-22T00:58:16;33;31;
47741;PMS5003;33504;52.066;6.096;2023-11-22T01:00:43;33;31;
47741;PMS5003;33504;52.066;6.096;2023-11-22T01:03:10;32;28;
47741;PMS5003;33504;52.066;6.096;2023-11-22T01:05:37;30;28;
47741;PMS5003;33504;52.066;6.096;2023-11-22T01:08:05;25;22;
47741;PMS5003;33504;52.066;6.096;2023-11-22T01:10:32;32;30;
47741;PMS5003;33504;52.066;6.096;2023-11-22T01:12:59;28;26;
47741;PMS5003;33504;52.066;6.096;2023-11-22T01:15:26;23;23;
47741;PMS5003;33504;52.066;6.096;2023-11-22T01:17:53;32;30;
47741;PMS5003;33504;52.066;6.096;2023-11-22T01:20:20;28;26;
47741;PMS5003;33504;52.066;6.096;2023-11-22T01:22:47;29;25;
47741;PMS5003;33504;52.066;6.096;2023-11-22T01:25:14;30;28;
47741;PMS5003;33504;52.066;6.096;2023-11-22T01:27:41;31;27;
47741;PMS5003;33504;52.066;6.096;2023-11-22T01:30:08;29;26;
47741;PMS5003;33504;52.066;6.096;2023-11-22T01:32:35;26;24;
47741;PMS5003;33504;52.066;6.096;2023-11-22T01:35:03;30;29;
47741;PMS5003;33504;52.066;6.096;2023-11-22T01:37:30;25;25;
47741;PMS5003;33504;52.066;6.096;2023-11-22T01:39:57;31;30;
47741;PMS5003;33504;52.066;6.096;2023-11-22T01:42:24;33;30;
47741;PMS5003;33504;52.066;6.096;2023-11-22T01:44:51;26;24;
47741;PMS5003;33504;52.066;6.096;2023-11-22T01:47:18;29;27;
47741;PMS5003;33504;52.066;6.096;2023-11-22T01:49:45;30;29;
47741;PMS5003;33504;52.066;6.096;2023-11-22T01:52:13;25;23;
47741;PMS5003;33504;52.066;6.096;2023-11-22T01:54:40;28;27;
47741;PMS5003;33504;52.066;6.096;2023-11-22T01:57:08;32;32;
47741;PMS5003;33504;52.066;6.096;2023-11-22T01:59:36;33;31;
47741;PMS5003;33504;52.066;6.096;2023-11-22T02:02:04;26;26;
47741;PMS5003;33504;52.066;6.096;2023-11-22T02:04:32;24;23;
47741;PMS5003;33504;52.066;6.096;2023-11-22T02:06:59;29;27;
47741;PMS5003;33504;52.066;6.096;2023-11-22T02:09:26;33;31;
47741;PMS5003;33504;52.066;6.096;2023-11-22T02:11:53;29;27;
47741;PMS5003;33504;52.066;6.096;2023-11-22T02:14:21;27;26;
47741;PMS5003;33504;52.066;6.096;2023-11-22T02:16:47;23;22;
47741;PMS5003;33504;52.066;6.096;2023-11-22T02:19:16;28;27;
47741;PMS5003;33504;52.066;6.096;2023-11-22T02:21:43;31;27;
47741;PMS5003;33504;52.066;6.096;2023-11-22T02:24:10;28;26;
47741;PMS5003;33504;52.066;6.096;2023-11-22T02:26:38;28;26;
47741;PMS5003;33504;52.066;6.096;2023-11-22T02:29:09;28;23;
47741;PMS5003;33504;52.066;6.096;2023-11-22T02:31:36;32;30;
47741;PMS5003;33504;52.066;6.096;2023-11-22T02:34:03;30;27;
47741;PMS5003;33504;52.066;6.096;2023-11-22T02:36:30;28;23;
47741;PMS5003;33504;52.066;6.096;2023-11-22T02:38:57;29;26;
47741;PMS5003;33504;52.066;6.096;2023-11-22T02:41:26;32;29;
47741;PMS5003;33504;52.066;6.096;2023-11-22T02:43:53;28;25;
47741;PMS5003;33504;52.066;6.096;2023-11-22T02:46:20;25;23;
47741;PMS5003;33504;52.066;6.096;2023-11-22T02:48:47;27;23;
47741;PMS5003;33504;52.066;6.096;2023-11-22T02:51:14;24;22;
47741;PMS5003;33504;52.066;6.096;2023-11-22T02:53:42;32;27;
47741;PMS5003;33504;52.066;6.096;2023-11-22T02:56:09;24;21;
47741;PMS5003;33504;52.066;6.096;2023-11-22T02:58:36;25;22;
47741;PMS5003;33504;52.066;6.096;2023-11-22T03:01:03;28;26;
47741;PMS5003;33504;52.066;6.096;2023-11-22T03:03:30;25;24;
47741;PMS5003;33504;52.066;6.096;2023-11-22T03:05:57;26;26;
47741;PMS5003;33504;52.066;6.096;2023-11-22T03:08:24;23;23;
47741;PMS5003;33504;52.066;6.096;2023-11-22T03:10:51;26;23;
47741;PMS5003;33504;52.066;6.096;2023-11-22T03:13:19;25;24;
47741;PMS5003;33504;52.066;6.096;2023-11-22T03:15:45;28;26;
47741;PMS5003;33504;52.066;6.096;2023-11-22T03:18:13;27;27;
47741;PMS5003;33504;52.066;6.096;2023-11-22T03:20:40;29;28;
47741;PMS5003;33504;52.066;6.096;2023-11-22T03:23:07;32;30;
47741;PMS5003;33504;52.066;6.096;2023-11-22T03:25:34;27;24;
47741;PMS5003;33504;52.066;6.096;2023-11-22T03:28:02;32;31;
47741;PMS5003;33504;52.066;6.096;2023-11-22T03:30:29;31;29;
47741;PMS5003;33504;52.066;6.096;2023-11-22T03:32:56;28;26;
47741;PMS5003;33504;52.066;6.096;2023-11-22T03:35:23;29;25;
47741;PMS5003;33504;52.066;6.096;2023-11-22T03:37:50;23;21;
47741;PMS5003;33504;52.066;6.096;2023-11-22T03:40:17;25;23;
47741;PMS5003;33504;52.066;6.096;2023-11-22T03:42:44;23;20;
47741;PMS5003;33504;52.066;6.096;2023-11-22T03:45:12;35;31;
47741;PMS5003;33504;52.066;6.096;2023-11-22T03:47:39;25;20;
47741;PMS5003;33504;52.066;6.096;2023-11-22T03:50:06;26;26;
47741;PMS5003;33504;52.066;6.096;2023-11-22T03:52:34;32;29;
47741;PMS5003;33504;52.066;6.096;2023-11-22T03:55:01;24;24;
47741;PMS5003;33504;52.066;6.096;2023-11-22T03:57:28;25;23;
47741;PMS5003;33504;52.066;6.096;2023-11-22T03:59:55;22;21;
47741;PMS5003;33504;52.066;6.096;2023-11-22T04:02:22;22;19;
47741;PMS5003;33504;52.066;6.096;2023-11-22T04:04:50;28;25;
47741;PMS5003;33504;52.066;6.096;2023-11-22T04:07:17;28;25;
47741;PMS5003;33504;52.066;6.096;2023-11-22T04:09:44;25;24;
47741;PMS5003;33504;52.066;6.096;2023-11-22T04:12:11;21;21;
47741;PMS5003;33504;52.066;6.096;2023-11-22T04:14:38;26;25;
47741;PMS5003;33504;52.066;6.096;2023-11-22T04:17:06;21;21;
47741;PMS5003;33504;52.066;6.096;2023-11-22T04:19:33;25;24;
47741;PMS5003;33504;52.066;6.096;2023-11-22T04:22:00;29;25;
47741;PMS5003;33504;52.066;6.096;2023-11-22T04:24:27;23;22;
47741;PMS5003;33504;52.066;6.096;2023-11-22T04:26:55;22;21;
47741;PMS5003;33504;52.066;6.096;2023-11-22T04:29:22;22;21;
47741;PMS5003;33504;52.066;6.096;2023-11-22T04:31:48;25;24;
47741;PMS5003;33504;52.066;6.096;2023-11-22T04:34:15;26;21;
47741;PMS5003;33504;52.066;6.096;2023-11-22T04:36:42;26;24;
47741;PMS5003;33504;52.066;6.096;2023-11-22T04:39:09;24;23;
47741;PMS5003;33504;52.066;6.096;2023-11-22T04:41:37;30;25;
47741;PMS5003;33504;52.066;6.096;2023-11-22T04:44:04;28;25;
47741;PMS5003;33504;52.066;6.096;2023-11-22T04:46:31;28;26;
47741;PMS5003;33504;52.066;6.096;2023-11-22T04:48:58;24;23;
47741;PMS5003;33504;52.066;6.096;2023-11-22T04:51:25;34;32;
47741;PMS5003;33504;52.066;6.096;2023-11-22T04:53:52;27;26;
47741;PMS5003;33504;52.066;6.096;2023-11-22T04:56:19;23;22;
47741;PMS5003;33504;52.066;6.096;2023-11-22T04:58:47;34;31;
47741;PMS5003;33504;52.066;6.096;2023-11-22T05:01:13;25;23;
47741;PMS5003;33504;52.066;6.096;2023-11-22T05:03:41;27;25;
47741;PMS5003;33504;52.066;6.096;2023-11-22T05:06:08;24;23;
47741;PMS5003;33504;52.066;6.096;2023-11-22T05:08:35;30;25;
47741;PMS5003;33504;52.066;6.096;2023-11-22T05:11:02;31;24;
47741;PMS5003;33504;52.066;6.096;2023-11-22T05:13:30;23;22;
47741;PMS5003;33504;52.066;6.096;2023-11-22T05:15:57;27;27;
47741;PMS5003;33504;52.066;6.096;2023-11-22T05:18:24;22;21;
47741;PMS5003;33504;52.066;6.096;2023-11-22T05:20:51;26;24;
47741;PMS5003;33504;52.066;6.096;2023-11-22T05:23:19;20;19;
47741;PMS5003;33504;52.066;6.096;2023-11-22T05:25:46;26;25;
47741;PMS5003;33504;52.066;6.096;2023-11-22T05:28:13;31;29;
47741;PMS5003;33504;52.066;6.096;2023-11-22T05:30:40;24;22;
47741;PMS5003;33504;52.066;6.096;2023-11-22T05:33:07;24;23;
47741;PMS5003;33504;52.066;6.096;2023-11-22T05:35:34;25;24;
47741;PMS5003;33504;52.066;6.096;2023-11-22T05:38:02;29;25;
47741;PMS5003;33504;52.066;6.096;2023-11-22T05:40:28;28;24;
47741;PMS5003;33504;52.066;6.096;2023-11-22T05:42:56;23;21;
47741;PMS5003;33504;52.066;6.096;2023-11-22T05:45:23;30;26;
47741;PMS5003;33504;52.066;6.096;2023-11-22T05:47:50;26;25;
47741;PMS5003;33504;52.066;6.096;2023-11-22T05:50:18;32;31;
47741;PMS5003;33504;52.066;6.096;2023-11-22T05:52:45;33;31;
47741;PMS5003;33504;52.066;6.096;2023-11-22T05:55:12;30;27;
47741;PMS5003;33504;52.066;6.096;2023-11-22T05:57:40;25;23;
47741;PMS5003;33504;52.066;6.096;2023-11-22T06:00:07;28;22;
47741;PMS5003;33504;52.066;6.096;2023-11-22T06:02:36;26;25;
47741;PMS5003;33504;52.066;6.096;2023-11-22T06:05:03;33;30;
47741;PMS5003;33504;52.066;6.096;2023-11-22T06:07:31;25;23;
47741;PMS5003;33504;52.066;6.096;2023-11-22T06:09:58;30;26;
47741;PMS5003;33504;52.066;6.096;2023-11-22T06:12:25;32;27;
47741;PMS5003;33504;52.066;6.096;2023-11-22T06:14:52;26;24;
47741;PMS5003;33504;52.066;6.096;2023-11-22T06:17:19;27;25;
47741;PMS5003;33504;52.066;6.096;2023-11-22T06:19:46;27;25;
47741;PMS5003;33504;52.066;6.096;2023-11-22T06:22:13;25;23;
47741;PMS5003;33504;52.066;6.096;2023-11-22T06:24:40;24;23;
47741;PMS5003;33504;52.066;6.096;2023-11-22T06:27:07;28;26;
47741;PMS5003;33504;52.066;6.096;2023-11-22T06:29:35;23;21;
47741;PMS5003;33504;52.066;6.096;2023-11-22T06:32:01;36;32;
47741;PMS5003;33504;52.066;6.096;2023-11-22T06:34:29;26;24;
47741;PMS5003;33504;52.066;6.096;2023-11-22T06:36:56;31;31;
47741;PMS5003;33504;52.066;6.096;2023-11-22T06:39:23;33;31;
47741;PMS5003;33504;52.066;6.096;2023-11-22T06:41:50;31;29;
47741;PMS5003;33504;52.066;6.096;2023-11-22T06:44:16;32;28;
47741;PMS5003;33504;52.066;6.096;2023-11-22T06:46:43;26;24;
47741;PMS5003;33504;52.066;6.096;2023-11-22T06:49:10;29;27;
47741;PMS5003;33504;52.066;6.096;2023-11-22T06:51:37;26;26;
47741;PMS5003;33504;52.066;6.096;2023-11-22T06:54:04;26;24;
47741;PMS5003;33504;52.066;6.096;2023-11-22T06:56:31;33;31;
47741;PMS5003;33504;52.066;6.096;2023-11-22T06:58:58;26;24;
47741;PMS5003;33504;52.066;6.096;2023-11-22T07:01:25;36;33;
47741;PMS5003;33504;52.066;6.096;2023-11-22T07:03:53;36;32;
47741;PMS5003;33504;52.066;6.096;2023-11-22T07:06:20;24;23;
47741;PMS5003;33504;52.066;6.096;2023-11-22T07:08:47;26;25;
47741;PMS5003;33504;52.066;6.096;2023-11-22T07:11:20;32;30;
47741;PMS5003;33504;52.066;6.096;2023-11-22T07:13:48;36;34;
47741;PMS5003;33504;52.066;6.096;2023-11-22T07:16:15;33;31;
47741;PMS5003;33504;52.066;6.096;2023-11-22T07:18:43;33;29;
47741;PMS5003;33504;52.066;6.096;2023-11-22T07:21:10;26;26;
47741;PMS5003;33504;52.066;6.096;2023-11-22T07:23:37;30;26;
47741;PMS5003;33504;52.066;6.096;2023-11-22T07:26:05;24;23;
47741;PMS5003;33504;52.066;6.096;2023-11-22T07:28:31;28;25;
47741;PMS5003;33504;52.066;6.096;2023-11-22T07:30:58;26;24;
47741;PMS5003;33504;52.066;6.096;2023-11-22T07:33:25;30;28;
47741;PMS5003;33504;52.066;6.096;2023-11-22T07:35:52;37;35;
47741;PMS5003;33504;52.066;6.096;2023-11-22T07:38:19;25;23;
47741;PMS5003;33504;52.066;6.096;2023-11-22T07:40:47;33;28;
47741;PMS5003;33504;52.066;6.096;2023-11-22T07:43:14;28;27;
47741;PMS5003;33504;52.066;6.096;2023-11-22T07:45:41;36;33;
47741;PMS5003;33504;52.066;6.096;2023-11-22T07:48:08;27;25;
47741;PMS5003;33504;52.066;6.096;2023-11-22T07:50:37;26;26;
47741;PMS5003;33504;52.066;6.096;2023-11-22T07:53:04;35;31;
47741;PMS5003;33504;52.066;6.096;2023-11-22T07:55:31;25;24;
47741;PMS5003;33504;52.066;6.096;2023-11-22T07:57:58;31;30;
47741;PMS5003;33504;52.066;6.096;2023-11-22T08:00:26;29;27;
47741;PMS5003;33504;52.066;6.096;2023-11-22T08:02:54;30;30;
47741;PMS5003;33504;52.066;6.096;2023-11-22T08:05:21;29;28;
47741;PMS5003;33504;52.066;6.096;2023-11-22T08:07:48;36;32;
47741;PMS5003;33504;52.066;6.096;2023-11-22T08:10:15;36;33;
47741;PMS5003;33504;52.066;6.096;2023-11-22T08:12:42;34;32;
47741;PMS5003;33504;52.066;6.096;2023-11-22T08:15:10;31;29;
47741;PMS5003;33504;52.066;6.096;2023-11-22T08:17:37;23;23;
47741;PMS5003;33504;52.066;6.096;2023-11-22T08:20:05;28;27;
47741;PMS5003;33504;52.066;6.096;2023-11-22T08:22:33;29;28;
47741;PMS5003;33504;52.066;6.096;2023-11-22T08:25:00;30;27;
47741;PMS5003;33504;52.066;6.096;2023-11-22T08:27:28;29;28;
47741;PMS5003;33504;52.066;6.096;2023-11-22T08:29:54;38;34;
47741;PMS5003;33504;52.066;6.096;2023-11-22T08:32:21;27;23;
47741;PMS5003;33504;52.066;6.096;2023-11-22T08:34:49;36;32;
47741;PMS5003;33504;52.066;6.096;2023-11-22T08:37:16;34;32;
47741;PMS5003;33504;52.066;6.096;2023-11-22T08:39:43;25;25;
47741;PMS5003;33504;52.066;6.096;2023-11-22T08:42:10;32;32;
47741;PMS5003;33504;52.066;6.096;2023-11-22T08:44:37;46;43;
47741;PMS5003;33504;52.066;6.096;2023-11-22T08:47:04;57;49;
47741;PMS5003;33504;52.066;6.096;2023-11-22T08:49:31;48;45;
47741;PMS5003;33504;52.066;6.096;2023-11-22T08:52:00;51;46;
47741;PMS5003;33504;52.066;6.096;2023-11-22T08:54:27;43;42;
47741;PMS5003;33504;52.066;6.096;2023-11-22T08:56:54;42;38;
47741;PMS5003;33504;52.066;6.096;2023-11-22T08:59:21;47;46;
47741;PMS5003;33504;52.066;6.096;2023-11-22T09:01:48;42;40;
47741;PMS5003;33504;52.066;6.096;2023-11-22T09:04:14;39;36;
47741;PMS5003;33504;52.066;6.096;2023-11-22T09:06:42;40;38;
47741;PMS5003;33504;52.066;6.096;2023-11-22T09:09:09;46;43;
47741;PMS5003;33504;52.066;6.096;2023-11-22T09:11:37;42;40;
47741;PMS5003;33504;52.066;6.096;2023-11-22T09:14:03;47;44;
47741;PMS5003;33504;52.066;6.096;2023-11-22T09:16:34;43;40;
47741;PMS5003;33504;52.066;6.096;2023-11-22T09:19:01;38;36;
47741;PMS5003;33504;52.066;6.096;2023-11-22T09:21:28;40;38;
47741;PMS5003;33504;52.066;6.096;2023-11-22T09:23:55;41;39;
47741;PMS5003;33504;52.066;6.096;2023-11-22T09:26:22;39;32;
47741;PMS5003;33504;52.066;6.096;2023-11-22T09:28:49;38;36;
47741;PMS5003;33504;52.066;6.096;2023-11-22T09:31:16;34;32;
47741;PMS5003;33504;52.066;6.096;2023-11-22T09:33:43;37;34;
47741;PMS5003;33504;52.066;6.096;2023-11-22T09:36:10;47;43;
47741;PMS5003;33504;52.066;6.096;2023-11-22T09:38:37;35;30;
47741;PMS5003;33504;52.066;6.096;2023-11-22T09:41:04;39;37;
47741;PMS5003;33504;52.066;6.096;2023-11-22T09:43:31;35;32;
47741;PMS5003;33504;52.066;6.096;2023-11-22T09:45:58;39;37;
47741;PMS5003;33504;52.066;6.096;2023-11-22T09:48:26;39;37;
47741;PMS5003;33504;52.066;6.096;2023-11-22T09:50:54;38;32;
47741;PMS5003;33504;52.066;6.096;2023-11-22T09:53:26;36;33;
47741;PMS5003;33504;52.066;6.096;2023-11-22T09:55:58;29;27;
47741;PMS5003;33504;52.066;6.096;2023-11-22T09:58:25;32;30;
47741;PMS5003;33504;52.066;6.096;2023-11-22T10:00:55;38;34;
47741;PMS5003;33504;52.066;6.096;2023-11-22T10:03:23;31;30;
47741;PMS5003;33504;52.066;6.096;2023-11-22T10:05:52;32;30;
47741;PMS5003;33504;52.066;6.096;2023-11-22T10:08:20;31;26;
47741;PMS5003;33504;52.066;6.096;2023-11-22T10:10:47;26;23;
47741;PMS5003;33504;52.066;6.096;2023-11-22T10:13:15;29;27;
47741;PMS5003;33504;52.066;6.096;2023-11-22T10:15:42;31;28;
47741;PMS5003;33504;52.066;6.096;2023-11-22T10:18:10;36;34;
47741;PMS5003;33504;52.066;6.096;2023-11-22T10:20:37;38;36;
47741;PMS5003;33504;52.066;6.096;2023-11-22T10:23:08;34;31;
47741;PMS5003;33504;52.066;6.096;2023-11-22T10:25:35;38;34;
47741;PMS5003;33504;52.066;6.096;2023-11-22T10:28:03;30;28;
47741;PMS5003;33504;52.066;6.096;2023-11-22T10:30:32;40;39;
47741;PMS5003;33504;52.066;6.096;2023-11-22T10:32:59;31;30;
47741;PMS5003;33504;52.066;6.096;2023-11-22T10:35:26;35;32;
47741;PMS5003;33504;52.066;6.096;2023-11-22T10:37:53;39;38;
47741;PMS5003;33504;52.066;6.096;2023-11-22T10:40:20;34;31;
47741;PMS5003;33504;52.066;6.096;2023-11-22T10:42:47;47;41;
47741;PMS5003;33504;52.066;6.096;2023-11-22T10:45:16;41;40;
47741;PMS5003;33504;52.066;6.096;2023-11-22T10:47:44;32;31;
47741;PMS5003;33504;52.066;6.096;2023-11-22T10:50:12;33;31;
47741;PMS5003;33504;52.066;6.096;2023-11-22T10:52:41;38;34;
47741;PMS5003;33504;52.066;6.096;2023-11-22T10:55:08;40;40;
47741;PMS5003;33504;52.066;6.096;2023-11-22T10:57:40;39;37;
47741;PMS5003;33504;52.066;6.096;2023-11-22T11:00:12;38;38;
47741;PMS5003;33504;52.066;6.096;2023-11-22T11:02:44;40;38;
47741;PMS5003;33504;52.066;6.096;2023-11-22T11:05:14;39;38;
47741;PMS5003;33504;52.066;6.096;2023-11-22T11:07:44;35;33;
47741;PMS5003;33504;52.066;6.096;2023-11-22T11:10:15;40;37;
47741;PMS5003;33504;52.066;6.096;2023-11-22T11:12:45;39;38;
47741;PMS5003;33504;52.066;6.096;2023-11-22T11:15:12;34;34;
47741;PMS5003;33504;52.066;6.096;2023-11-22T11:17:41;36;34;
47741;PMS5003;33504;52.066;6.096;2023-11-22T11:20:10;41;40;
47741;PMS5003;33504;52.066;6.096;2023-11-22T11:22:38;33;29;
47741;PMS5003;33504;52.066;6.096;2023-11-22T11:25:05;36;35;
47741;PMS5003;33504;52.066;6.096;2023-11-22T11:27:33;32;27;
47741;PMS5003;33504;52.066;6.096;2023-11-22T11:30:01;34;31;
47741;PMS5003;33504;52.066;6.096;2023-11-22T11:32:31;36;33;
47741;PMS5003;33504;52.066;6.096;2023-11-22T11:34:58;33;32;
47741;PMS5003;33504;52.066;6.096;2023-11-22T11:37:29;30;29;
47741;PMS5003;33504;52.066;6.096;2023-11-22T11:39:56;37;34;
47741;PMS5003;33504;52.066;6.096;2023-11-22T11:42:25;38;37;
47741;PMS5003;33504;52.066;6.096;2023-11-22T11:45:08;31;28;
47741;PMS5003;33504;52.066;6.096;2023-11-22T11:47:37;35;35;
47741;PMS5003;33504;52.066;6.096;2023-11-22T11:50:04;32;29;
47741;PMS5003;33504;52.066;6.096;2023-11-22T11:52:32;27;26;
47741;PMS5003;33504;52.066;6.096;2023-11-22T11:54:59;27;26;
47741;PMS5003;33504;52.066;6.096;2023-11-22T11:57:30;30;28;
47741;PMS5003;33504;52.066;6.096;2023-11-22T11:59:57;35;35;
47741;PMS5003;33504;52.066;6.096;2023-11-22T12:02:24;29;29;
47741;PMS5003;33504;52.066;6.096;2023-11-22T12:04:51;24;22;
47741;PMS5003;33504;52.066;6.096;2023-11-22T12:07:18;34;31;
47741;PMS5003;33504;52.066;6.096;2023-11-22T12:09:45;27;27;
47741;PMS5003;33504;52.066;6.096;2023-11-22T12:12:12;27;25;
47741;PMS5003;33504;52.066;6.096;2023-11-22T12:14:39;31;30;
47741;PMS5003;33504;52.066;6.096;2023-11-22T12:17:05;27;26;
47741;PMS5003;33504;52.066;6.096;2023-11-22T12:19:33;33;29;
47741;PMS5003;33504;52.066;6.096;2023-11-22T12:22:00;30;28;
47741;PMS5003;33504;52.066;6.096;2023-11-22T12:24:27;28;27;
47741;PMS5003;33504;52.066;6.096;2023-11-22T12:26:55;31;28;
47741;PMS5003;33504;52.066;6.096;2023-11-22T12:29:23;26;24;
47741;PMS5003;33504;52.066;6.096;2023-11-22T12:31:50;31;30;
47741;PMS5003;33504;52.066;6.096;2023-11-22T12:34:18;32;29;
47741;PMS5003;33504;52.066;6.096;2023-11-22T12:36:46;30;28;
47741;PMS5003;33504;52.066;6.096;2023-11-22T12:39:13;32;30;
47741;PMS5003;33504;52.066;6.096;2023-11-22T12:41:41;28;28;
47741;PMS5003;33504;52.066;6.096;2023-11-22T12:44:10;29;28;
47741;PMS5003;33504;52.066;6.096;2023-11-22T12:46:52;33;30;
47741;PMS5003;33504;52.066;6.096;2023-11-22T12:49:20;22;21;
47741;PMS5003;33504;52.066;6.096;2023-11-22T12:51:49;30;27;
47741;PMS5003;33504;52.066;6.096;2023-11-22T12:54:17;32;31;
47741;PMS5003;33504;52.066;6.096;2023-11-22T12:56:45;27;26;
47741;PMS5003;33504;52.066;6.096;2023-11-22T12:59:12;32;28;
47741;PMS5003;33504;52.066;6.096;2023-11-22T13:01:38;25;23;
47741;PMS5003;33504;52.066;6.096;2023-11-22T13:04:05;30;26;
47741;PMS5003;33504;52.066;6.096;2023-11-22T13:06:32;25;24;
47741;PMS5003;33504;52.066;6.096;2023-11-22T13:08:59;26;25;
47741;PMS5003;33504;52.066;6.096;2023-11-22T13:11:26;26;26;
47741;PMS5003;33504;52.066;6.096;2023-11-22T13:13:54;27;26;
47741;PMS5003;33504;52.066;6.096;2023-11-22T13:16:21;30;26;
47741;PMS5003;33504;52.066;6.096;2023-11-22T13:18:48;35;33;
47741;PMS5003;33504;52.066;6.096;2023-11-22T13:21:15;28;28;
47741;PMS5003;33504;52.066;6.096;2023-11-22T13:23:42;25;24;
47741;PMS5003;33504;52.066;6.096;2023-11-22T13:26:09;33;31;
47741;PMS5003;33504;52.066;6.096;2023-11-22T13:28:36;33;29;
47741;PMS5003;33504;52.066;6.096;2023-11-22T13:31:04;34;30;
47741;PMS5003;33504;52.066;6.096;2023-11-22T13:33:31;34;30;
47741;PMS5003;33504;52.066;6.096;2023-11-22T13:35:58;28;26;
47741;PMS5003;33504;52.066;6.096;2023-11-22T13:38:25;39;35;
47741;PMS5003;33504;52.066;6.096;2023-11-22T13:40:52;27;26;
47741;PMS5003;33504;52.066;6.096;2023-11-22T13:43:19;31;29;
47741;PMS5003;33504;52.066;6.096;2023-11-22T13:45:46;30;28;
47741;PMS5003;33504;52.066;6.096;2023-11-22T13:48:13;41;36;
47741;PMS5003;33504;52.066;6.096;2023-11-22T13:50:40;33;32;
47741;PMS5003;33504;52.066;6.096;2023-11-22T13:53:07;38;37;
47741;PMS5003;33504;52.066;6.096;2023-11-22T13:55:34;39;35;
47741;PMS5003;33504;52.066;6.096;2023-11-22T13:58:01;47;42;
47741;PMS5003;33504;52.066;6.096;2023-11-22T14:00:29;29;28;
47741;PMS5003;33504;52.066;6.096;2023-11-22T14:02:57;34;33;
47741;PMS5003;33504;52.066;6.096;2023-11-22T14:05:24;37;36;
47741;PMS5003;33504;52.066;6.096;2023-11-22T14:07:51;33;31;
47741;PMS5003;33504;52.066;6.096;2023-11-22T14:10:21;42;39;
47741;PMS5003;33504;52.066;6.096;2023-11-22T14:12:48;42;40;
47741;PMS5003;33504;52.066;6.096;2023-11-22T14:15:16;32;32;
47741;PMS5003;33504;52.066;6.096;2023-11-22T14:17:43;47;40;
47741;PMS5003;33504;52.066;6.096;2023-11-22T14:20:11;46;42;
47741;PMS5003;33504;52.066;6.096;2023-11-22T14:22:39;48;44;
47741;PMS5003;33504;52.066;6.096;2023-11-22T14:25:06;38;33;
47741;PMS5003;33504;52.066;6.096;2023-11-22T14:27:34;44;42;
47741;PMS5003;33504;52.066;6.096;2023-11-22T14:30:01;45;42;
47741;PMS5003;33504;52.066;6.096;2023-11-22T14:32:28;49;44;
47741;PMS5003;33504;52.066;6.096;2023-11-22T14:34:55;40;38;
47741;PMS5003;33504;52.066;6.096;2023-11-22T14:37:22;48;42;
47741;PMS5003;33504;52.066;6.096;2023-11-22T14:39:48;47;46;
47741;PMS5003;33504;52.066;6.096;2023-11-22T14:42:15;55;51;
47741;PMS5003;33504;52.066;6.096;2023-11-22T14:44:43;52;45;
47741;PMS5003;33504;52.066;6.096;2023-11-22T14:47:09;50;50;
47741;PMS5003;33504;52.066;6.096;2023-11-22T14:49:36;48;44;
47741;PMS5003;33504;52.066;6.096;2023-11-22T14:52:03;47;41;
47741;PMS5003;33504;52.066;6.096;2023-11-22T14:54:30;55;51;
47741;PMS5003;33504;52.066;6.096;2023-11-22T14:56:57;61;54;
47741;PMS5003;33504;52.066;6.096;2023-11-22T14:59:25;51;44;
47741;PMS5003;33504;52.066;6.096;2023-11-22T15:01:52;55;53;
47741;PMS5003;33504;52.066;6.096;2023-11-22T15:04:19;50;45;
47741;PMS5003;33504;52.066;6.096;2023-11-22T15:06:46;49;45;
47741;PMS5003;33504;52.066;6.096;2023-11-22T15:09:13;52;50;
47741;PMS5003;33504;52.066;6.096;2023-11-22T15:11:40;56;54;
47741;PMS5003;33504;52.066;6.096;2023-11-22T15:14:07;63;52;
47741;PMS5003;33504;52.066;6.096;2023-11-22T15:16:34;59;54;
47741;PMS5003;33504;52.066;6.096;2023-11-22T15:19:01;58;51;
47741;PMS5003;33504;52.066;6.096;2023-11-22T15:21:29;57;50;
47741;PMS5003;33504;52.066;6.096;2023-11-22T15:23:56;55;51;
47741;PMS5003;33504;52.066;6.096;2023-11-22T15:26:23;56;52;
47741;PMS5003;33504;52.066;6.096;2023-11-22T15:28:50;56;52;
47741;PMS5003;33504;52.066;6.096;2023-11-22T15:31:18;56;48;
47741;PMS5003;33504;52.066;6.096;2023-11-22T15:33:45;59;54;
47741;PMS5003;33504;52.066;6.096;2023-11-22T15:36:12;57;49;
47741;PMS5003;33504;52.066;6.096;2023-11-22T15:38:39;59;50;
47741;PMS5003;33504;52.066;6.096;2023-11-22T15:41:07;52;50;
47741;PMS5003;33504;52.066;6.096;2023-11-22T15:43:34;57;51;
47741;PMS5003;33504;52.066;6.096;2023-11-22T15:46:01;50;47;
47741;PMS5003;33504;52.066;6.096;2023-11-22T15:48:28;48;46;
47741;PMS5003;33504;52.066;6.096;2023-11-22T15:50:55;57;52;
47741;PMS5003;33504;52.066;6.096;2023-11-22T15:53:22;60;51;
47741;PMS5003;33504;52.066;6.096;2023-11-22T15:55:49;56;51;
47741;PMS5003;33504;52.066;6.096;2023-11-22T15:58:16;52;49;
47741;PMS5003;33504;52.066;6.096;2023-11-22T16:00:43;61;55;
47741;PMS5003;33504;52.066;6.096;2023-11-22T16:03:10;55;51;
47741;PMS5003;33504;52.066;6.096;2023-11-22T16:05:37;54;49;
47741;PMS5003;33504;52.066;6.096;2023-11-22T16:08:04;65;57;
47741;PMS5003;33504;52.066;6.096;2023-11-22T16:10:31;68;58;
47741;PMS5003;33504;52.066;6.096;2023-11-22T16:12:59;63;59;
47741;PMS5003;33504;52.066;6.096;2023-11-22T16:15:25;59;54;
47741;PMS5003;33504;52.066;6.096;2023-11-22T16:17:52;58;54;
47741;PMS5003;33504;52.066;6.096;2023-11-22T16:20:20;56;52;